sensor_id;sensor_type;location;lat;lon;timestamp;temperature;humidity
20315;DHT22;10315;50.958;13.080;2023-06-26T00:04:13;17.90;99.90
20315;DHT22;10315;50.958;13.080;2023-06-26T00:14:16;17.90;99.90
20315;DHT22;10315;50.958;13.080;2023-06-26T00:24:21;17.60;99.90
20315;DHT22;10315;50.958;13.080;2023-06-26T00:34:24;17.40;99.90
20315;DHT22;10315;50.958;13.080;2023-06-26T00:44:25;17.40;99.90
20315;DHT22;10315;50.958;13.080;2023-06-26T00:54:28;17.40;99.90
20315;DHT22;10315;50.958;13.080;2023-06-26T01:04:31;17.20;99.90
20315;DHT22;10315;50.958;13.080;2023-06-26T01:14:35;17.10;99.90
20315;DHT22;10315;50.958;13.080;2023-06-26T01:24:39;16.90;99.90
20315;DHT22;10315;50.958;13.080;2023-06-26T01:34:45;16.80;99.90
20315;DHT22;10315;50.958;13.080;2023-06-26T01:44:47;16.70;99.90
20315;DHT22;10315;50.958;13.080;2023-06-26T01:54:55;16.50;99.90
20315;DHT22;10315;50.958;13.080;2023-06-26T02:04:57;16.80;99.90
20315;DHT22;10315;50.958;13.080;2023-06-26T02:15:00;17.10;99.90
20315;DHT22;10315;50.958;13.080;2023-06-26T02:25:02;17.30;99.90
20315;DHT22;10315;50.958;13.080;2023-06-26T02:35:06;17.40;99.90
20315;DHT22;10315;50.958;13.080;2023-06-26T02:45:09;17.50;99.90
20315;DHT22;10315;50.958;13.080;2023-06-26T02:55:14;17.40;99.90
20315;DHT22;10315;50.958;13.080;2023-06-26T03:05:16;16.80;99.90
20315;DHT22;10315;50.958;13.080;2023-06-26T03:15:21;16.50;99.90
20315;DHT22;10315;50.958;13.080;2023-06-26T03:25:23;16.40;99.90
20315;DHT22;10315;50.958;13.080;2023-06-26T03:35:29;16.50;99.90
20315;DHT22;10315;50.958;13.080;2023-06-26T03:45:31;16.60;99.90
20315;DHT22;10315;50.958;13.080;2023-06-26T03:55:34;16.70;99.90
20315;DHT22;10315;50.958;13.080;2023-06-26T04:05:35;17.10;99.90
20315;DHT22;10315;50.958;13.080;2023-06-26T04:15:38;17.60;99.90
20315;DHT22;10315;50.958;13.080;2023-06-26T04:25:42;17.90;99.90
20315;DHT22;10315;50.958;13.080;2023-06-26T04:35:46;18.20;99.90
20315;DHT22;10315;50.958;13.080;2023-06-26T04:45:49;18.40;99.90
20315;DHT22;10315;50.958;13.080;2023-06-26T04:55:52;18.70;99.90
20315;DHT22;10315;50.958;13.080;2023-06-26T05:05:54;19.20;99.90
20315;DHT22;10315;50.958;13.080;2023-06-26T05:15:57;19.70;99.90
20315;DHT22;10315;50.958;13.080;2023-06-26T05:25:59;20.00;99.90
20315;DHT22;10315;50.958;13.080;2023-06-26T05:36:03;20.30;99.90
20315;DHT22;10315;50.958;13.080;2023-06-26T05:46:05;20.70;99.90
20315;DHT22;10315;50.958;13.080;2023-06-26T05:56:09;21.10;99.90
20315;DHT22;10315;50.958;13.080;2023-06-26T06:06:11;21.60;99.90
20315;DHT22;10315;50.958;13.080;2023-06-26T06:16:14;22.30;99.90
20315;DHT22;10315;50.958;13.080;2023-06-26T06:26:15;23.30;99.90
20315;DHT22;10315;50.958;13.080;2023-06-26T06:36:18;25.10;99.90
20315;DHT22;10315;50.958;13.080;2023-06-26T06:46:20;31.00;99.90
20315;DHT22;10315;50.958;13.080;2023-06-26T06:56:23;35.00;98.50
20315;DHT22;10315;50.958;13.080;2023-06-26T07:06:25;36.30;88.40
20315;DHT22;10315;50.958;13.080;2023-06-26T07:16:28;37.50;80.20
20315;DHT22;10315;50.958;13.080;2023-06-26T07:26:29;39.40;72.00
20315;DHT22;10315;50.958;13.080;2023-06-26T07:36:32;41.70;63.80
20315;DHT22;10315;50.958;13.080;2023-06-26T07:46:34;40.70;61.70
20315;DHT22;10315;50.958;13.080;2023-06-26T07:56:52;41.70;60.30
20315;DHT22;10315;50.958;13.080;2023-06-26T08:06:56;43.10;56.20
20315;DHT22;10315;50.958;13.080;2023-06-26T08:16:59;42.80;55.10
20315;DHT22;10315;50.958;13.080;2023-06-26T08:27:01;45.20;52.50
20315;DHT22;10315;50.958;13.080;2023-06-26T08:37:07;43.20;52.90
20315;DHT22;10315;50.958;13.080;2023-06-26T08:47:11;44.90;50.70
20315;DHT22;10315;50.958;13.080;2023-06-26T08:57:18;47.20;49.40
20315;DHT22;10315;50.958;13.080;2023-06-26T09:07:20;47.60;45.70
20315;DHT22;10315;50.958;13.080;2023-06-26T09:17:25;47.50;47.10
20315;DHT22;10315;50.958;13.080;2023-06-26T09:27:34;50.60;42.50
20315;DHT22;10315;50.958;13.080;2023-06-26T09:37:37;49.70;44.00
20315;DHT22;10315;50.958;13.080;2023-06-26T09:47:44;49.80;40.10
20315;DHT22;10315;50.958;13.080;2023-06-26T09:57:47;50.40;39.40
20315;DHT22;10315;50.958;13.080;2023-06-26T10:07:51;45.70;43.40
20315;DHT22;10315;50.958;13.080;2023-06-26T10:17:56;47.60;43.30
20315;DHT22;10315;50.958;13.080;2023-06-26T10:28:01;46.30;43.70
20315;DHT22;10315;50.958;13.080;2023-06-26T10:38:08;42.50;47.40
20315;DHT22;10315;50.958;13.080;2023-06-26T10:48:13;40.50;50.00
20315;DHT22;10315;50.958;13.080;2023-06-26T10:58:33;39.50;49.20
20315;DHT22;10315;50.958;13.080;2023-06-26T11:08:44;38.70;51.00
20315;DHT22;10315;50.958;13.080;2023-06-26T11:18:47;37.50;54.40
20315;DHT22;10315;50.958;13.080;2023-06-26T11:28:52;36.60;54.80
20315;DHT22;10315;50.958;13.080;2023-06-26T11:38:57;36.80;53.30
20315;DHT22;10315;50.958;13.080;2023-06-26T11:48:59;36.00;54.90
20315;DHT22;10315;50.958;13.080;2023-06-26T11:59:06;35.80;53.20
20315;DHT22;10315;50.958;13.080;2023-06-26T12:09:10;35.90;55.90
20315;DHT22;10315;50.958;13.080;2023-06-26T12:19:13;35.40;52.70
20315;DHT22;10315;50.958;13.080;2023-06-26T12:29:19;35.10;56.30
20315;DHT22;10315;50.958;13.080;2023-06-26T12:39:22;35.40;54.20
20315;DHT22;10315;50.958;13.080;2023-06-26T12:49:31;34.70;57.20
20315;DHT22;10315;50.958;13.080;2023-06-26T12:59:36;34.90;54.90
20315;DHT22;10315;50.958;13.080;2023-06-26T13:09:38;34.40;59.60
20315;DHT22;10315;50.958;13.080;2023-06-26T13:19:42;33.90;57.30
20315;DHT22;10315;50.958;13.080;2023-06-26T13:29:44;34.00;57.10
20315;DHT22;10315;50.958;13.080;2023-06-26T13:39:47;33.90;59.10
20315;DHT22;10315;50.958;13.080;2023-06-26T13:49:50;33.90;57.70
20315;DHT22;10315;50.958;13.080;2023-06-26T13:59:53;33.80;55.50
20315;DHT22;10315;50.958;13.080;2023-06-26T14:09:54;33.60;57.90
20315;DHT22;10315;50.958;13.080;2023-06-26T14:19:57;33.50;58.60
20315;DHT22;10315;50.958;13.080;2023-06-26T14:29:59;33.20;59.50
20315;DHT22;10315;50.958;13.080;2023-06-26T14:40:03;33.30;58.80
20315;DHT22;10315;50.958;13.080;2023-06-26T14:50:07;32.40;57.70
20315;DHT22;10315;50.958;13.080;2023-06-26T15:00:11;32.40;62.90
20315;DHT22;10315;50.958;13.080;2023-06-26T15:10:13;32.40;65.70
20315;DHT22;10315;50.958;13.080;2023-06-26T15:20:16;32.50;60.20
20315;DHT22;10315;50.958;13.080;2023-06-26T15:30:18;30.90;67.60
20315;DHT22;10315;50.958;13.080;2023-06-26T15:40:21;29.80;71.00
20315;DHT22;10315;50.958;13.080;2023-06-26T15:50:22;25.50;99.90
20315;DHT22;10315;50.958;13.080;2023-06-26T16:00:26;22.20;99.90
20315;DHT22;10315;50.958;13.080;2023-06-26T16:10:28;21.70;99.90
20315;DHT22;10315;50.958;13.080;2023-06-26T16:20:31;22.00;99.90
20315;DHT22;10315;50.958;13.080;2023-06-26T16:30:32;22.80;99.90
20315;DHT22;10315;50.958;13.080;2023-06-26T16:40:35;23.40;99.90
20315;DHT22;10315;50.958;13.080;2023-06-26T16:50:52;22.70;99.90
20315;DHT22;10315;50.958;13.080;2023-06-26T17:00:55;22.40;99.90
20315;DHT22;10315;50.958;13.080;2023-06-26T17:10:59;22.20;99.90
20315;DHT22;10315;50.958;13.080;2023-06-26T17:21:02;21.90;99.90
20315;DHT22;10315;50.958;13.080;2023-06-26T17:31:07;21.60;99.90
20315;DHT22;10315;50.958;13.080;2023-06-26T17:41:12;21.10;99.90
20315;DHT22;10315;50.958;13.080;2023-06-26T17:51:16;20.60;99.90
20315;DHT22;10315;50.958;13.080;2023-06-26T18:01:19;19.70;99.90
20315;DHT22;10315;50.958;13.080;2023-06-26T18:11:21;19.20;99.90
20315;DHT22;10315;50.958;13.080;2023-06-26T18:21:27;18.80;99.90
20315;DHT22;10315;50.958;13.080;2023-06-26T18:31:29;18.60;99.90
20315;DHT22;10315;50.958;13.080;2023-06-26T18:41:31;18.50;99.90
20315;DHT22;10315;50.958;13.080;2023-06-26T18:51:33;18.40;99.90
20315;DHT22;10315;50.958;13.080;2023-06-26T19:01:37;18.30;99.90
20315;DHT22;10315;50.958;13.080;2023-06-26T19:11:39;18.30;99.90
20315;DHT22;10315;50.958;13.080;2023-06-26T19:21:42;18.20;99.90
20315;DHT22;10315;50.958;13.080;2023-06-26T19:31:43;18.20;99.90
20315;DHT22;10315;50.958;13.080;2023-06-26T19:41:46;18.00;99.90
20315;DHT22;10315;50.958;13.080;2023-06-26T19:51:48;17.70;99.90
20315;DHT22;10315;50.958;13.080;2023-06-26T20:01:52;17.60;99.90
20315;DHT22;10315;50.958;13.080;2023-06-26T20:11:53;17.60;99.90
20315;DHT22;10315;50.958;13.080;2023-06-26T20:21:57;17.60;99.90
20315;DHT22;10315;50.958;13.080;2023-06-26T20:31:59;17.50;99.90
20315;DHT22;10315;50.958;13.080;2023-06-26T20:42:02;17.60;99.90
20315;DHT22;10315;50.958;13.080;2023-06-26T20:52:09;17.80;99.90
20315;DHT22;10315;50.958;13.080;2023-06-26T21:02:12;17.70;99.90
20315;DHT22;10315;50.958;13.080;2023-06-26T21:12:14;17.60;99.90
20315;DHT22;10315;50.958;13.080;2023-06-26T21:22:17;17.70;99.90
20315;DHT22;10315;50.958;13.080;2023-06-26T21:32:20;17.80;99.90
20315;DHT22;10315;50.958;13.080;2023-06-26T21:42:23;17.70;99.90
20315;DHT22;10315;50.958;13.080;2023-06-26T21:52:25;17.50;99.90
20315;DHT22;10315;50.958;13.080;2023-06-26T22:02:28;17.40;99.90
20315;DHT22;10315;50.958;13.080;2023-06-26T22:12:29;17.30;99.90
20315;DHT22;10315;50.958;13.080;2023-06-26T22:22:32;17.10;99.90
20315;DHT22;10315;50.958;13.080;2023-06-26T22:32:34;17.00;99.90
20315;DHT22;10315;50.958;13.080;2023-06-26T22:42:38;17.00;99.90
20315;DHT22;10315;50.958;13.080;2023-06-26T22:52:40;16.90;99.90
20315;DHT22;10315;50.958;13.080;2023-06-26T23:02:43;16.50;99.90
20315;DHT22;10315;50.958;13.080;2023-06-26T23:12:45;16.30;99.90
20315;DHT22;10315;50.958;13.080;2023-06-26T23:22:48;16.20;99.90
20315;DHT22;10315;50.958;13.080;2023-06-26T23:32:49;16.00;99.90
20315;DHT22;10315;50.958;13.080;2023-06-26T23:42:52;15.80;99.90
20315;DHT22;10315;50.958;13.080;2023-06-26T23:52:56;15.90;99.90
